METAR Data
IDs: Format: Raw Decoded Include TAF

Data at: 2302 UTC 25 Oct 2021

PFYU 252256Z 00000KT 10SM FEW004 SCT016 BKN050 M04/M06 A2925 RMK AO2 SLP919 T10391056
PFYU 252227Z 00000KT 10SM FEW004 SCT016 BKN050 M04/M06 A2925 RMK AO2
PFYU 252156Z 00000KT 9SM OVC004 M04/M06 A2925 RMK AO2 UPB16E23SNB24E56 SLP919 P0000 T10391056
PFYU 252056Z 00000KT 3SM BR FEW000 OVC004 M05/M06 A2925 RMK AO2 SNB40E50 SLP920 BR FEW000 P0000 60000 T10501061 50000
PFYU 252041Z 00000KT 3SM -SN BR FEW000 OVC004 M05/M06 A2925 RMK AO2 SNB40 BR FEW000 P0000
PFYU 252035Z 00000KT 1 1/4SM BR FEW000 OVC004 M05/M06 A2925 RMK AO2 BR FEW000
PFYU 252019Z 00000KT 3/4SM BR FEW000 OVC004 M05/M06 A2925 RMK AO2 BR FEW000
PFYU 252003Z 00000KT 1SM BR OVC004 M06/M06 A2925 RMK AO2 CIG 003V009
PFYU 251956Z 00000KT 3SM BR FEW000 BKN006 M06/M07 A2925 RMK AO2 SLP921 BR FEW000 T10561067
PFYU 251856Z 00000KT 10SM FEW001 SCT010 M07/M08 A2925 RMK AO2 SLP920 T10721083
PFYU 251845Z 00000KT 3SM BR FEW003 M07/M08 A2925 RMK AO2
PFYU 251841Z 00000KT 1 1/2SM BR FEW000 SCT003 M07/M08 A2925 RMK AO2 BR FEW000
PFYU 251821Z 00000KT 1SM BR FEW000 BKN003 M08/M08 A2925 RMK AO2 VIS 1/2V5 BR FEW000
PFYU 251817Z 00000KT 2SM BR FEW000 BKN003 OVC100 M08/M08 A2925 RMK AO2 VIS 3/4V5 BR FEW000
PFYU 251803Z 00000KT 4SM BR FEW000 SCT003 BKN100 M08/M08 A2925 RMK AO2 BR FEW000
PFYU 251756Z 00000KT 1 3/4SM BR FEW000 SCT003 BKN100 M08/M08 A2925 RMK AO2 VIS 1/2V5 SLP920 BR FEW000 T10781083 11061 21078 55007
PFYU 251749Z 00000KT 1SM BR FEW000 SCT003 BKN100 M08/M08 A2925 RMK AO2 VIS 1/2V5 BR FEW000
PFYU 251738Z 00000KT 1 3/4SM BR FEW000 SCT003 BKN100 M08/M08 A2925 RMK AO2 VIS 1 1/4V5 BR FEW000
PFYU 251720Z 00000KT 3SM BR FEW000 SCT003 BKN100 M08/M08 A2925 RMK AO2 BR FEW000
PFYU 251714Z 00000KT 1 3/4SM BR FEW000 SCT003 BKN100 M08/M08 A2925 RMK AO2 BR FEW000
PFYU 251706Z 00000KT 1SM BR FEW000 SCT003 BKN100 M08/M08 A2925 RMK AO2 BR FEW000
PFYU 251656Z 00000KT 1/2SM FZFG FEW000 SCT003 BKN100 M08/M08 A2925 RMK AO2 SLP919 FZFG FEW000 T10781083
PFYU 251647Z 00000KT 1/4SM FZFG FEW000 SCT003 M08/M08 A2925 RMK AO2 FZFG FEW000
PFYU 251631Z 00000KT 1/2SM FZFG SCT000 OVC003 M08/M08 A2925 RMK AO2 FZFG SCT000
PFYU 251616Z 00000KT 3/4SM BR OVC003 M08/M08 A2925 RMK AO2
PFYU 251611Z 00000KT 1 3/4SM BR OVC003 M08/M08 A2925 RMK AO2
PFYU 251556Z 00000KT 10SM OVC003 M08/M08 A2926 RMK AO2 SLP923 T10781083
PFYU 251530Z 00000KT 10SM OVC005 M07/M08 A2926 RMK AO2 CIG 004V008
PFYU 251522Z 00000KT 10SM OVC008 M07/M08 A2927 RMK AO2 CIG 004V011
PFYU 251500Z AUTO 00000KT 3SM BR FEW004 OVC010 M07/M08 A2927 RMK AO2 FZRANO
PFYU 251456Z AUTO 00000KT 1 1/4SM BR FEW004 OVC010 M07/M08 A2927 RMK AO2 SLP928 T10721083 56007 FZRANO
PFYU 251446Z AUTO 00000KT 3/4SM BR SCT004 OVC010 M07/M08 A2927 RMK AO2 FZRANO
PFYU 251441Z AUTO 00000KT 1/2SM FZFG BKN004 OVC010 M07/M08 A2927 RMK AO2 CIG 002V007 FZRANO
PFYU 251428Z AUTO 00000KT 3/4SM BR OVC004 M08/M08 A2927 RMK AO2 FZRANO
PFYU 251420Z AUTO 00000KT 1/2SM FZFG OVC004 M08/M08 A2927 RMK AO2 FZRANO
PFYU 251411Z AUTO 00000KT 3/4SM BR OVC004 M08/M08 A2927 RMK AO2 FZRANO
PFYU 251356Z AUTO 05003KT 1/2SM FZFG OVC004 M07/M08 A2927 RMK AO2 SLP928 T10721083 FZRANO
PFYU 251319Z AUTO 00000KT 1/2SM FZFG OVC004 M07/M08 A2928 RMK AO2 FZRANO
PFYU 251310Z AUTO 00000KT 3/4SM BR OVC004 M07/M07 A2928 RMK AO2 FZRANO
PFYU 251256Z AUTO 00000KT 1/2SM FZFG OVC004 M07/M07 A2928 RMK AO2 SLP930 T10671072 FZRANO
PFYU 251215Z AUTO 05003KT 3/4SM BR OVC004 M06/M07 A2929 RMK AO2 FZRANO
PFYU 251207Z AUTO 07003KT 1 3/4SM BR OVC004 M06/M07 A2929 RMK AO2 FZRANO
PFYU 251156Z AUTO 06004KT 2SM BR OVC004 M06/M07 A2929 RMK AO2 VIS 1 1/4V4 SLP934 60000 T10611067 11050 21061 58007 FZRANO
PFYU 251125Z AUTO 04004KT 3SM BR OVC004 M06/M07 A2930 RMK AO2 FZRANO
PFYU 251106Z AUTO 00000KT 1 3/4SM BR OVC004 M06/M07 A2930 RMK AO2 VIS 1 1/2V2 1/2 FZRANO
PFYU 251056Z AUTO 00000KT 5SM BR OVC004 M06/M07 A2931 RMK AO2 SLP938 T10611067 FZRANO
PFYU 251051Z AUTO 00000KT 4SM BR OVC004 M06/M07 A2931 RMK AO2 FZRANO
PFYU 251033Z AUTO 00000KT 2SM BR OVC004 M06/M07 A2931 RMK AO2 FZRANO
PFYU 251021Z AUTO 00000KT 1SM BR OVC004 M06/M06 A2931 RMK AO2 FZRANO
PFYU 251007Z AUTO 00000KT 1 3/4SM BR OVC004 M06/M06 A2931 RMK AO2 FZRANO
PFYU 250956Z AUTO 00000KT 1SM BR OVC004 M06/M06 A2932 RMK AO2 SLP942 T10561061 FZRANO
PFYU 250950Z AUTO VRB03KT 1 3/4SM BR OVC004 M06/M06 A2932 RMK AO2 VIS 3/4V5 FZRANO
PFYU 250856Z AUTO 00000KT 7SM OVC004 M05/M06 A2933 RMK AO2 SNE11 SLP946 P0000 60000 T10501056 410061050 56007 FZRANO
PFYU 250756Z AUTO 00000KT 4SM -SN BR OVC004 M05/M06 A2933 RMK AO2 SNB11 SLP948 P0000 T10501056 FZRANO
PFYU 250716Z AUTO 00000KT 3SM -SN BR OVC004 M05/M06 A2934 RMK AO2 SNB11 P0000 FZRANO
PFYU 250703Z AUTO 00000KT 1 1/2SM BR OVC004 M05/M06 A2934 RMK AO2 FZRANO
PFYU 250656Z AUTO 00000KT 2SM BR OVC004 M05/M06 A2935 RMK AO2 VIS 1 1/4V3 SLP952 T10501056 FZRANO
PFYU 250612Z AUTO 00000KT 9SM OVC004 M05/M06 A2935 RMK AO2 FZRANO
PFYU 250556Z AUTO 00000KT 10SM OVC006 M05/M06 A2935 RMK AO2 SNE02 CIG 004V008 SLP955 P0000 60000 T10501056 11022 21050 58013 FZRANO
PFYU 250456Z AUTO 00000KT 8SM -SN OVC006 M04/M06 A2937 RMK AO2 CIG 003V010 SLP958 P0000 T10441056 FZRANO
PFYU 250356Z AUTO 00000KT 5SM -SN BR OVC004 M04/M05 A2938 RMK AO2 SLP964 P0000 T10441050 FZRANO
PFYU 250329Z AUTO 00000KT 4SM -SN BR OVC004 M04/M05 A2939 RMK AO2 P0000 FZRANO
PFYU 250319Z AUTO 00000KT 2 1/2SM -SN BR OVC004 M04/M05 A2939 RMK AO2 P0000 FZRANO
PFYU 250256Z 00000KT 5SM -SN BR OVC004 M04/M05 A2939 RMK AO2 SLP967 P0000 60000 T10391050 56010
PFYU 250231Z 00000KT 9SM -SN OVC004 M04/M04 A2940 RMK AO2 P0000
PFYU 250156Z 00000KT 4SM -SN BR BKN006 OVC009 M03/M04 A2940 RMK AO2 SLP970 P0000 T10331044
PFYU 250117Z 00000KT 8SM -SN OVC009 M03/M04 A2941 RMK AO2 CIG 005V011 P0000
PFYU 250056Z 00000KT 1SM -SN BR OVC009 M03/M04 A2941 RMK AO2 CIG 005V011 SLP973 P0000 T10281039
PFYU 250045Z 00000KT 3SM -SN BR OVC007 M03/M04 A2941 RMK AO2 CIG 005V011 P0000
PFYU 250012Z 00000KT 8SM -SN OVC010 M03/M04 A2942 RMK AO2 P0000
PFYU 242356Z 00000KT 10SM -SN OVC008 M02/M04 A2942 RMK AO2 UPB01E02B30E48SNE01B02E30B32E47B49 CIG 005V012 SLP976 P0000 60000 T10221039 11022 21033 58004
PFYU 242341Z 00000KT 10SM -SN BKN006 OVC013 M02/M03 A2943 RMK AO2 UPB01E02B30E32SNE01B02E30B32 P0000
PFYU 242327Z 00000KT 10SM -SN FEW006 OVC013 M02/M04 A2943 RMK AO2 UPB01E02SNE01B02 P0000
PFYU 242256Z 00000KT 8SM -SN BKN006 OVC010 M02/M04 A2943 RMK AO2 CIG 004V009 SLP978 P0000 T10221039
PFYU 242249Z 00000KT 9SM -SN BKN005 OVC011 M02/M03 A2943 RMK AO2 CIG 004V008 P0000
PFYU 242156Z 00000KT 10SM -SN FEW006 OVC011 M02/M04 A2944 RMK AO2 SLP982 BR FEW000 P0000 T10221039
PFYU 242152Z 00000KT 8SM -SN FEW006 OVC011 M03/M04 A2944 RMK AO2 BR FEW000 P0000
PFYU 242130Z 00000KT 3SM -SN BR FEW000 BKN006 OVC009 M02/M03 A2944 RMK AO2 BR FEW000 P0000
PFYU 242121Z 00000KT 1/2SM SN FZFG FEW000 BKN006 OVC009 M02/M03 A2944 RMK AO2 FZFG FEW000 P0000
PFYU 242114Z COR 00000KT 1/2SM -SN FZFG FEW000 OVC009 M02/M03 A2944 RMK AO2 BR FEW000 P0000
PFYU 242056Z 03003KT 6SM -SN BR BKN009 OVC013 M02/M03 A2944 RMK AO2 SNB02 CIG 006V011 SLP983 P0000 60000 T10221028 56001
PFYU 242047Z 03003KT 3SM -SN BR SCT006 OVC011 M03/M03 A2945 RMK AO2 SNB02 P0000
PFYU 241956Z 05004KT 10SM BKN006 OVC010 M03/M03 A2944 RMK AO2 SNE36 SLP982 P0000 T10331033
PFYU 241951Z 05005KT 10SM SCT006 OVC010 M03/M04 A2944 RMK AO2 SNE36 P0000
PFYU 241943Z 03005KT 10SM BKN006 OVC010 M03/M04 A2944 RMK AO2 SNE36 CIG 005V010 P0000
PFYU 241932Z 02004KT 10SM -SN OVC010 M03/M04 A2944 RMK AO2 CIG 008V012 P0000
PFYU 241913Z 02003KT 3SM -SN BR OVC008 M03/M03 A2944 RMK AO2 CIG 005V012 P0000
PFYU 241856Z 03003KT 3SM -SN BR OVC005 M03/M03 A2944 RMK AO2 UPB15E19SNE01B19 SLP983 P0000 T10281033
PFYU 241840Z 03003KT 3SM -SN BR OVC005 M03/M03 A2944 RMK AO2 UPB15E19SNE01B19 CIG 003V007 P0000
PFYU 241832Z 03004KT 2SM -SN BR OVC003 M03/M03 A2944 RMK AO2 UPB15E19SNE01B19 CIG 003V006 P0000
PFYU 241756Z 00000KT 8SM -SN BR BKN003 OVC009 M03/M03 A2944 RMK AO2 UPB51E54SNE51B54 SLP983 P0000 60000 T10281033 11017 21028 51004
PFYU 241728Z 00000KT 6SM -SN BR OVC009 M03/M03 A2944 RMK AO2 CIG 004V010 P0000
PFYU 241718Z 00000KT 3SM -SN BR BKN005 OVC009 M03/M03 A2944 RMK AO2 CIG 003V008 P0000
PFYU 241703Z 00000KT 1SM -SN BR FEW000 OVC005 M02/M03 A2944 RMK AO2 BR FEW000 P0000
PFYU 241656Z 00000KT 1SM -SN BR FEW000 OVC007 M03/M03 A2944 RMK AO2 UPB02E07SNE02B08 SLP982 BR FEW000 P0000 T10281033
PFYU 241645Z 00000KT 1 3/4SM -SN BR OVC007 M03/M03 A2944 RMK AO2 UPB02E07SNE02B08 P0000
PFYU 241637Z 00000KT 3SM -SN BR OVC007 M02/M03 A2944 RMK AO2 UPB02E07SNE02B08 P0000
PFYU 241609Z 00000KT 2SM -SN BR OVC005 M02/M03 A2943 RMK AO2 UPB02E07SNE02B08 P0000
PFYU 241556Z 00000KT 6SM -SN BR OVC003 M02/M02 A2943 RMK AO2 UPE11SNB42 CIG 003V006 SLP979 P0000 T10221022
PFYU 241537Z 00000KT 2SM BR SCT000 OVC003 M02/M02 A2944 RMK AO2 UPE11 BR SCT000 P0000
PFYU 241456Z AUTO 00000KT 1 1/4SM UP BR OVC003 M02/M02 A2943 RMK AO2 UPB56 SLP979 P0000 60000 T10171022 51006 FZRANO
PFYU 241447Z AUTO 00000KT 1SM BR OVC003 M02/M02 A2943 RMK AO2 FZRANO
PFYU 241411Z AUTO 00000KT 3/4SM BR OVC003 M02/M02 A2941 RMK AO2 FZRANO
PFYU 241356Z AUTO 00000KT 1/2SM FZFG OVC003 M02/M02 A2941 RMK AO2 SLP974 T10171017 FZRANO
PFYU 241256Z AUTO 00000KT 1/2SM FZFG OVC003 M02/M02 A2941 RMK AO2 SLP973 T10171017 FZRANO
PFYU 241220Z AUTO 00000KT 3/4SM BR OVC003 M01/M02 A2940 RMK AO2 FZRANO
PFYU 241205Z AUTO 00000KT 1/2SM FZFG OVC003 M01/M01 A2940 RMK AO2 FZRANO
PFYU 241156Z AUTO 00000KT 3/4SM BR OVC003 M01/M01 A2940 RMK AO2 SLP968 T10111011 11006 21011 51014 FZRANO
PFYU 241143Z AUTO 00000KT 3/4SM BR OVC003 M01/M01 A2940 RMK AO2 FZRANO
PFYU 241134Z AUTO 00000KT 1SM BR OVC003 M01/M02 A2940 RMK AO2 FZRANO
PFYU 241119Z AUTO 00000KT 3/4SM BR OVC003 M01/M02 A2939 RMK AO2 FZRANO